sensor_id;sensor_type;location;lat;lon;timestamp;P1;durP1;ratioP1;P2;durP2;ratioP2
20619;SDS011;10469;42.720;23.252;2023-10-31T00:01:59;16.08;;;6.40;;
20619;SDS011;10469;42.720;23.252;2023-10-31T00:04:24;11.75;;;5.40;;
20619;SDS011;10469;42.720;23.252;2023-10-31T00:06:50;15.30;;;5.47;;
20619;SDS011;10469;42.720;23.252;2023-10-31T00:09:16;15.23;;;5.82;;
20619;SDS011;10469;42.720;23.252;2023-10-31T00:11:41;11.85;;;5.47;;
20619;SDS011;10469;42.720;23.252;2023-10-31T00:14:08;10.23;;;5.50;;
20619;SDS011;10469;42.720;23.252;2023-10-31T00:16:33;10.55;;;5.72;;
20619;SDS011;10469;42.720;23.252;2023-10-31T00:18:59;10.75;;;5.95;;
20619;SDS011;10469;42.720;23.252;2023-10-31T00:21:24;15.63;;;5.65;;
20619;SDS011;10469;42.720;23.252;2023-10-31T00:23:50;11.32;;;5.10;;
20619;SDS011;10469;42.720;23.252;2023-10-31T00:26:15;14.45;;;5.78;;
20619;SDS011;10469;42.720;23.252;2023-10-31T00:28:41;12.48;;;5.50;;
20619;SDS011;10469;42.720;23.252;2023-10-31T00:31:07;11.98;;;6.00;;
20619;SDS011;10469;42.720;23.252;2023-10-31T00:33:34;11.43;;;4.68;;
20619;SDS011;10469;42.720;23.252;2023-10-31T00:36:00;13.95;;;5.80;;
20619;SDS011;10469;42.720;23.252;2023-10-31T00:38:25;9.48;;;5.22;;
20619;SDS011;10469;42.720;23.252;2023-10-31T00:40:51;15.55;;;5.50;;
20619;SDS011;10469;42.720;23.252;2023-10-31T00:43:16;10.05;;;4.97;;
20619;SDS011;10469;42.720;23.252;2023-10-31T00:45:42;11.95;;;5.13;;
20619;SDS011;10469;42.720;23.252;2023-10-31T00:48:07;11.18;;;5.10;;
20619;SDS011;10469;42.720;23.252;2023-10-31T00:50:33;12.38;;;5.30;;
20619;SDS011;10469;42.720;23.252;2023-10-31T00:52:58;15.95;;;5.97;;
20619;SDS011;10469;42.720;23.252;2023-10-31T00:55:24;13.05;;;5.30;;
20619;SDS011;10469;42.720;23.252;2023-10-31T00:57:50;11.88;;;5.43;;
20619;SDS011;10469;42.720;23.252;2023-10-31T01:00:15;14.00;;;6.22;;
20619;SDS011;10469;42.720;23.252;2023-10-31T01:02:41;24.67;;;8.98;;
20619;SDS011;10469;42.720;23.252;2023-10-31T01:05:07;13.40;;;7.18;;
20619;SDS011;10469;42.720;23.252;2023-10-31T01:07:33;21.30;;;10.75;;
20619;SDS011;10469;42.720;23.252;2023-10-31T01:09:59;17.08;;;7.45;;
20619;SDS011;10469;42.720;23.252;2023-10-31T01:12:25;14.82;;;5.70;;
20619;SDS011;10469;42.720;23.252;2023-10-31T01:14:53;13.50;;;6.32;;
20619;SDS011;10469;42.720;23.252;2023-10-31T01:17:19;12.43;;;5.78;;
20619;SDS011;10469;42.720;23.252;2023-10-31T01:19:45;14.13;;;6.38;;
20619;SDS011;10469;42.720;23.252;2023-10-31T01:22:10;11.57;;;6.35;;
20619;SDS011;10469;42.720;23.252;2023-10-31T01:24:36;15.95;;;6.50;;
20619;SDS011;10469;42.720;23.252;2023-10-31T01:27:02;17.27;;;6.75;;
20619;SDS011;10469;42.720;23.252;2023-10-31T01:29:27;10.88;;;6.50;;
20619;SDS011;10469;42.720;23.252;2023-10-31T01:31:53;10.10;;;6.35;;
20619;SDS011;10469;42.720;23.252;2023-10-31T01:34:18;14.35;;;5.70;;
20619;SDS011;10469;42.720;23.252;2023-10-31T01:36:44;16.98;;;6.65;;
20619;SDS011;10469;42.720;23.252;2023-10-31T01:39:09;14.77;;;6.28;;
20619;SDS011;10469;42.720;23.252;2023-10-31T01:41:35;11.52;;;6.03;;
20619;SDS011;10469;42.720;23.252;2023-10-31T01:44:01;15.02;;;6.70;;
20619;SDS011;10469;42.720;23.252;2023-10-31T01:46:27;14.90;;;6.15;;
20619;SDS011;10469;42.720;23.252;2023-10-31T01:48:52;16.40;;;6.05;;
20619;SDS011;10469;42.720;23.252;2023-10-31T01:51:18;18.70;;;6.82;;
20619;SDS011;10469;42.720;23.252;2023-10-31T01:53:44;16.05;;;7.32;;
20619;SDS011;10469;42.720;23.252;2023-10-31T01:56:09;13.82;;;6.28;;
20619;SDS011;10469;42.720;23.252;2023-10-31T01:58:36;18.40;;;7.38;;
20619;SDS011;10469;42.720;23.252;2023-10-31T02:01:03;12.10;;;7.38;;
20619;SDS011;10469;42.720;23.252;2023-10-31T02:03:30;17.48;;;7.25;;
20619;SDS011;10469;42.720;23.252;2023-10-31T02:05:56;17.88;;;8.02;;
20619;SDS011;10469;42.720;23.252;2023-10-31T02:08:22;24.48;;;8.52;;
20619;SDS011;10469;42.720;23.252;2023-10-31T02:10:49;14.82;;;8.07;;
20619;SDS011;10469;42.720;23.252;2023-10-31T02:13:15;16.67;;;9.00;;
20619;SDS011;10469;42.720;23.252;2023-10-31T02:15:41;14.25;;;8.13;;
20619;SDS011;10469;42.720;23.252;2023-10-31T02:18:08;18.20;;;10.07;;
20619;SDS011;10469;42.720;23.252;2023-10-31T02:20:33;18.13;;;8.27;;
20619;SDS011;10469;42.720;23.252;2023-10-31T02:23:00;15.63;;;7.07;;
20619;SDS011;10469;42.720;23.252;2023-10-31T02:25:26;17.52;;;7.47;;
20619;SDS011;10469;42.720;23.252;2023-10-31T02:27:52;16.95;;;7.72;;
20619;SDS011;10469;42.720;23.252;2023-10-31T02:30:17;21.88;;;9.25;;
20619;SDS011;10469;42.720;23.252;2023-10-31T02:32:43;17.02;;;8.95;;
20619;SDS011;10469;42.720;23.252;2023-10-31T02:35:09;15.80;;;8.52;;
20619;SDS011;10469;42.720;23.252;2023-10-31T02:37:34;17.77;;;8.45;;
20619;SDS011;10469;42.720;23.252;2023-10-31T02:40:00;15.93;;;8.45;;
20619;SDS011;10469;42.720;23.252;2023-10-31T02:42:26;14.93;;;8.93;;
20619;SDS011;10469;42.720;23.252;2023-10-31T02:44:52;18.25;;;8.88;;
20619;SDS011;10469;42.720;23.252;2023-10-31T02:47:18;15.43;;;9.05;;
20619;SDS011;10469;42.720;23.252;2023-10-31T02:49:44;20.00;;;8.85;;
20619;SDS011;10469;42.720;23.252;2023-10-31T02:52:12;15.75;;;8.45;;
20619;SDS011;10469;42.720;23.252;2023-10-31T02:54:37;19.30;;;8.30;;
20619;SDS011;10469;42.720;23.252;2023-10-31T02:57:03;22.33;;;8.52;;
20619;SDS011;10469;42.720;23.252;2023-10-31T02:59:29;16.10;;;8.20;;
20619;SDS011;10469;42.720;23.252;2023-10-31T03:01:55;12.98;;;7.22;;
20619;SDS011;10469;42.720;23.252;2023-10-31T03:04:21;25.95;;;8.02;;
20619;SDS011;10469;42.720;23.252;2023-10-31T03:06:48;13.27;;;7.95;;
20619;SDS011;10469;42.720;23.252;2023-10-31T03:09:13;22.75;;;8.55;;
20619;SDS011;10469;42.720;23.252;2023-10-31T03:11:39;15.73;;;8.32;;
20619;SDS011;10469;42.720;23.252;2023-10-31T03:14:04;18.35;;;8.50;;
20619;SDS011;10469;42.720;23.252;2023-10-31T03:16:30;18.27;;;8.60;;
20619;SDS011;10469;42.720;23.252;2023-10-31T03:18:55;18.23;;;8.48;;
20619;SDS011;10469;42.720;23.252;2023-10-31T03:21:21;20.13;;;9.38;;
20619;SDS011;10469;42.720;23.252;2023-10-31T03:23:47;21.42;;;9.57;;
20619;SDS011;10469;42.720;23.252;2023-10-31T03:26:14;18.30;;;9.60;;
20619;SDS011;10469;42.720;23.252;2023-10-31T03:28:40;20.27;;;9.43;;
20619;SDS011;10469;42.720;23.252;2023-10-31T03:31:07;21.08;;;9.43;;
20619;SDS011;10469;42.720;23.252;2023-10-31T03:33:33;15.55;;;9.10;;
20619;SDS011;10469;42.720;23.252;2023-10-31T03:35:59;17.70;;;9.90;;
20619;SDS011;10469;42.720;23.252;2023-10-31T03:38:24;15.85;;;9.55;;
20619;SDS011;10469;42.720;23.252;2023-10-31T03:40:50;22.33;;;11.95;;
20619;SDS011;10469;42.720;23.252;2023-10-31T03:43:15;23.65;;;11.80;;
20619;SDS011;10469;42.720;23.252;2023-10-31T03:45:41;22.50;;;11.68;;
20619;SDS011;10469;42.720;23.252;2023-10-31T03:48:06;26.08;;;12.43;;
20619;SDS011;10469;42.720;23.252;2023-10-31T03:50:32;22.95;;;11.93;;
20619;SDS011;10469;42.720;23.252;2023-10-31T03:52:57;27.23;;;12.35;;
20619;SDS011;10469;42.720;23.252;2023-10-31T03:55:22;19.33;;;11.82;;
20619;SDS011;10469;42.720;23.252;2023-10-31T03:57:48;20.27;;;11.88;;
20619;SDS011;10469;42.720;23.252;2023-10-31T04:00:13;21.42;;;12.10;;
20619;SDS011;10469;42.720;23.252;2023-10-31T04:02:39;27.80;;;11.77;;
20619;SDS011;10469;42.720;23.252;2023-10-31T04:05:06;20.27;;;11.23;;
20619;SDS011;10469;42.720;23.252;2023-10-31T04:07:32;23.90;;;10.93;;
20619;SDS011;10469;42.720;23.252;2023-10-31T04:09:57;23.35;;;10.93;;
20619;SDS011;10469;42.720;23.252;2023-10-31T04:12:23;16.20;;;9.63;;
20619;SDS011;10469;42.720;23.252;2023-10-31T04:14:48;17.10;;;9.27;;
20619;SDS011;10469;42.720;23.252;2023-10-31T04:17:14;13.55;;;9.10;;
20619;SDS011;10469;42.720;23.252;2023-10-31T04:19:39;17.45;;;8.93;;
20619;SDS011;10469;42.720;23.252;2023-10-31T04:22:05;16.15;;;9.10;;
20619;SDS011;10469;42.720;23.252;2023-10-31T04:24:30;21.75;;;10.57;;
20619;SDS011;10469;42.720;23.252;2023-10-31T04:26:56;19.75;;;9.98;;
20619;SDS011;10469;42.720;23.252;2023-10-31T04:29:22;21.05;;;10.82;;
20619;SDS011;10469;42.720;23.252;2023-10-31T04:31:48;21.50;;;10.80;;
20619;SDS011;10469;42.720;23.252;2023-10-31T04:34:13;24.17;;;10.50;;
20619;SDS011;10469;42.720;23.252;2023-10-31T04:36:39;22.17;;;10.02;;
20619;SDS011;10469;42.720;23.252;2023-10-31T04:39:05;20.35;;;10.85;;
20619;SDS011;10469;42.720;23.252;2023-10-31T04:41:30;16.70;;;9.63;;
20619;SDS011;10469;42.720;23.252;2023-10-31T04:43:57;17.30;;;10.32;;
20619;SDS011;10469;42.720;23.252;2023-10-31T04:46:24;23.35;;;10.93;;
20619;SDS011;10469;42.720;23.252;2023-10-31T04:48:52;23.15;;;10.90;;
20619;SDS011;10469;42.720;23.252;2023-10-31T04:51:18;27.95;;;12.60;;
20619;SDS011;10469;42.720;23.252;2023-10-31T04:53:44;24.52;;;12.75;;
20619;SDS011;10469;42.720;23.252;2023-10-31T04:56:12;25.48;;;12.75;;
20619;SDS011;10469;42.720;23.252;2023-10-31T04:58:39;22.40;;;13.18;;
20619;SDS011;10469;42.720;23.252;2023-10-31T05:01:12;18.42;;;12.00;;
20619;SDS011;10469;42.720;23.252;2023-10-31T05:03:38;21.27;;;12.38;;
20619;SDS011;10469;42.720;23.252;2023-10-31T05:06:04;18.50;;;12.38;;
20619;SDS011;10469;42.720;23.252;2023-10-31T05:08:31;24.38;;;13.25;;
20619;SDS011;10469;42.720;23.252;2023-10-31T05:10:57;18.60;;;11.57;;
20619;SDS011;10469;42.720;23.252;2023-10-31T05:13:24;21.75;;;10.90;;
20619;SDS011;10469;42.720;23.252;2023-10-31T05:15:50;18.00;;;11.02;;
20619;SDS011;10469;42.720;23.252;2023-10-31T05:18:18;21.33;;;10.93;;
20619;SDS011;10469;42.720;23.252;2023-10-31T05:20:44;26.17;;;10.45;;
20619;SDS011;10469;42.720;23.252;2023-10-31T05:23:10;16.42;;;9.80;;
20619;SDS011;10469;42.720;23.252;2023-10-31T05:25:35;15.48;;;9.23;;
20619;SDS011;10469;42.720;23.252;2023-10-31T05:28:01;23.52;;;10.20;;
20619;SDS011;10469;42.720;23.252;2023-10-31T05:30:27;25.85;;;9.93;;
20619;SDS011;10469;42.720;23.252;2023-10-31T05:32:52;22.58;;;8.82;;
20619;SDS011;10469;42.720;23.252;2023-10-31T05:35:18;25.40;;;8.98;;
20619;SDS011;10469;42.720;23.252;2023-10-31T05:37:45;23.75;;;8.80;;
20619;SDS011;10469;42.720;23.252;2023-10-31T05:40:11;23.27;;;8.95;;
20619;SDS011;10469;42.720;23.252;2023-10-31T05:42:37;22.20;;;8.80;;
20619;SDS011;10469;42.720;23.252;2023-10-31T05:45:02;16.08;;;9.32;;
20619;SDS011;10469;42.720;23.252;2023-10-31T05:47:28;21.38;;;10.05;;
20619;SDS011;10469;42.720;23.252;2023-10-31T05:49:54;21.85;;;8.43;;
20619;SDS011;10469;42.720;23.252;2023-10-31T05:52:19;20.48;;;9.18;;
20619;SDS011;10469;42.720;23.252;2023-10-31T05:54:44;23.63;;;9.25;;
20619;SDS011;10469;42.720;23.252;2023-10-31T05:57:10;19.80;;;8.80;;
20619;SDS011;10469;42.720;23.252;2023-10-31T05:59:36;16.17;;;9.60;;
20619;SDS011;10469;42.720;23.252;2023-10-31T06:02:02;18.98;;;8.77;;
20619;SDS011;10469;42.720;23.252;2023-10-31T06:04:27;18.38;;;9.13;;
20619;SDS011;10469;42.720;23.252;2023-10-31T06:06:53;18.80;;;9.02;;
20619;SDS011;10469;42.720;23.252;2023-10-31T06:09:18;16.23;;;9.52;;
20619;SDS011;10469;42.720;23.252;2023-10-31T06:11:44;22.00;;;9.57;;
20619;SDS011;10469;42.720;23.252;2023-10-31T06:14:10;22.25;;;10.73;;
20619;SDS011;10469;42.720;23.252;2023-10-31T06:16:39;18.20;;;9.88;;
20619;SDS011;10469;42.720;23.252;2023-10-31T06:19:09;18.75;;;10.13;;
20619;SDS011;10469;42.720;23.252;2023-10-31T06:21:35;16.15;;;10.25;;
20619;SDS011;10469;42.720;23.252;2023-10-31T06:24:01;20.42;;;9.75;;
20619;SDS011;10469;42.720;23.252;2023-10-31T06:26:28;17.92;;;10.05;;
20619;SDS011;10469;42.720;23.252;2023-10-31T06:28:53;22.00;;;10.35;;
20619;SDS011;10469;42.720;23.252;2023-10-31T06:31:19;22.63;;;10.25;;
20619;SDS011;10469;42.720;23.252;2023-10-31T06:33:44;23.98;;;11.13;;
20619;SDS011;10469;42.720;23.252;2023-10-31T06:36:09;18.25;;;9.52;;
20619;SDS011;10469;42.720;23.252;2023-10-31T06:38:35;21.02;;;9.88;;
20619;SDS011;10469;42.720;23.252;2023-10-31T06:41:00;23.35;;;11.30;;
20619;SDS011;10469;42.720;23.252;2023-10-31T06:43:26;16.83;;;10.82;;
20619;SDS011;10469;42.720;23.252;2023-10-31T06:45:53;18.67;;;9.63;;
20619;SDS011;10469;42.720;23.252;2023-10-31T06:48:18;17.80;;;9.65;;
20619;SDS011;10469;42.720;23.252;2023-10-31T06:50:44;18.10;;;9.38;;
20619;SDS011;10469;42.720;23.252;2023-10-31T06:53:09;17.33;;;9.10;;
20619;SDS011;10469;42.720;23.252;2023-10-31T06:55:35;21.52;;;9.05;;
20619;SDS011;10469;42.720;23.252;2023-10-31T06:58:00;22.25;;;8.75;;
20619;SDS011;10469;42.720;23.252;2023-10-31T07:00:26;22.70;;;9.45;;
20619;SDS011;10469;42.720;23.252;2023-10-31T07:02:52;20.65;;;8.98;;
20619;SDS011;10469;42.720;23.252;2023-10-31T07:05:17;15.50;;;8.52;;
20619;SDS011;10469;42.720;23.252;2023-10-31T07:07:45;16.92;;;9.00;;
20619;SDS011;10469;42.720;23.252;2023-10-31T07:10:11;20.38;;;9.20;;
20619;SDS011;10469;42.720;23.252;2023-10-31T07:12:36;14.73;;;9.32;;
20619;SDS011;10469;42.720;23.252;2023-10-31T07:15:02;16.08;;;7.93;;
20619;SDS011;10469;42.720;23.252;2023-10-31T07:17:28;21.60;;;8.15;;
20619;SDS011;10469;42.720;23.252;2023-10-31T07:19:54;12.98;;;7.28;;
20619;SDS011;10469;42.720;23.252;2023-10-31T07:22:19;14.90;;;7.57;;
20619;SDS011;10469;42.720;23.252;2023-10-31T07:24:45;13.35;;;7.15;;
20619;SDS011;10469;42.720;23.252;2023-10-31T07:27:10;18.17;;;8.25;;
20619;SDS011;10469;42.720;23.252;2023-10-31T07:29:38;14.48;;;7.55;;
20619;SDS011;10469;42.720;23.252;2023-10-31T07:32:05;13.88;;;7.00;;
20619;SDS011;10469;42.720;23.252;2023-10-31T07:34:31;15.05;;;7.60;;
20619;SDS011;10469;42.720;23.252;2023-10-31T07:36:56;12.38;;;7.07;;
20619;SDS011;10469;42.720;23.252;2023-10-31T07:39:21;12.88;;;6.88;;
20619;SDS011;10469;42.720;23.252;2023-10-31T07:41:47;11.95;;;7.60;;
20619;SDS011;10469;42.720;23.252;2023-10-31T07:44:13;11.20;;;6.47;;
20619;SDS011;10469;42.720;23.252;2023-10-31T07:46:38;15.23;;;7.43;;
20619;SDS011;10469;42.720;23.252;2023-10-31T07:49:04;18.42;;;7.75;;
20619;SDS011;10469;42.720;23.252;2023-10-31T07:51:29;10.95;;;6.97;;
20619;SDS011;10469;42.720;23.252;2023-10-31T07:53:55;13.20;;;6.70;;
20619;SDS011;10469;42.720;23.252;2023-10-31T07:56:23;19.55;;;7.53;;
20619;SDS011;10469;42.720;23.252;2023-10-31T07:58:50;13.75;;;7.10;;
20619;SDS011;10469;42.720;23.252;2023-10-31T08:01:19;16.42;;;6.65;;
20619;SDS011;10469;42.720;23.252;2023-10-31T08:03:48;17.35;;;6.90;;
20619;SDS011;10469;42.720;23.252;2023-10-31T08:06:14;13.38;;;6.00;;
20619;SDS011;10469;42.720;23.252;2023-10-31T08:08:39;19.23;;;6.25;;
20619;SDS011;10469;42.720;23.252;2023-10-31T08:11:08;9.98;;;5.30;;
20619;SDS011;10469;42.720;23.252;2023-10-31T08:13:38;13.93;;;6.18;;
20619;SDS011;10469;42.720;23.252;2023-10-31T08:16:04;16.35;;;6.30;;
20619;SDS011;10469;42.720;23.252;2023-10-31T08:18:31;13.10;;;6.60;;
20619;SDS011;10469;42.720;23.252;2023-10-31T08:20:57;13.82;;;6.40;;
20619;SDS011;10469;42.720;23.252;2023-10-31T08:23:22;11.77;;;5.75;;
20619;SDS011;10469;42.720;23.252;2023-10-31T08:25:48;17.00;;;6.32;;
20619;SDS011;10469;42.720;23.252;2023-10-31T08:28:15;11.65;;;5.85;;
20619;SDS011;10469;42.720;23.252;2023-10-31T08:30:41;14.38;;;6.35;;
20619;SDS011;10469;42.720;23.252;2023-10-31T08:33:07;12.02;;;6.97;;
20619;SDS011;10469;42.720;23.252;2023-10-31T08:35:32;20.90;;;7.03;;
20619;SDS011;10469;42.720;23.252;2023-10-31T08:37:58;11.50;;;6.15;;
20619;SDS011;10469;42.720;23.252;2023-10-31T08:40:23;18.05;;;7.05;;
20619;SDS011;10469;42.720;23.252;2023-10-31T08:42:49;14.43;;;7.07;;
20619;SDS011;10469;42.720;23.252;2023-10-31T08:45:14;16.15;;;7.20;;
20619;SDS011;10469;42.720;23.252;2023-10-31T08:47:40;20.58;;;7.65;;
20619;SDS011;10469;42.720;23.252;2023-10-31T08:50:06;11.38;;;7.00;;
20619;SDS011;10469;42.720;23.252;2023-10-31T08:52:33;16.65;;;8.02;;
20619;SDS011;10469;42.720;23.252;2023-10-31T08:54:59;17.63;;;7.97;;
20619;SDS011;10469;42.720;23.252;2023-10-31T08:57:25;20.48;;;8.57;;
20619;SDS011;10469;42.720;23.252;2023-10-31T08:59:51;14.30;;;7.60;;
20619;SDS011;10469;42.720;23.252;2023-10-31T09:02:16;16.85;;;7.38;;
20619;SDS011;10469;42.720;23.252;2023-10-31T09:04:41;24.13;;;8.95;;
20619;SDS011;10469;42.720;23.252;2023-10-31T09:07:07;21.40;;;8.48;;
20619;SDS011;10469;42.720;23.252;2023-10-31T09:09:32;18.48;;;8.30;;
20619;SDS011;10469;42.720;23.252;2023-10-31T09:11:58;15.85;;;7.45;;
20619;SDS011;10469;42.720;23.252;2023-10-31T09:14:23;16.15;;;8.00;;
20619;SDS011;10469;42.720;23.252;2023-10-31T09:16:49;16.48;;;7.50;;
20619;SDS011;10469;42.720;23.252;2023-10-31T09:19:15;17.77;;;7.40;;
20619;SDS011;10469;42.720;23.252;2023-10-31T09:21:40;18.13;;;8.30;;
20619;SDS011;10469;42.720;23.252;2023-10-31T09:24:07;14.43;;;7.57;;
20619;SDS011;10469;42.720;23.252;2023-10-31T09:26:33;17.23;;;7.85;;
20619;SDS011;10469;42.720;23.252;2023-10-31T09:28:58;21.48;;;8.27;;
20619;SDS011;10469;42.720;23.252;2023-10-31T09:31:24;17.30;;;8.57;;
20619;SDS011;10469;42.720;23.252;2023-10-31T09:33:49;13.38;;;7.72;;
20619;SDS011;10469;42.720;23.252;2023-10-31T09:36:16;19.77;;;8.90;;
20619;SDS011;10469;42.720;23.252;2023-10-31T09:38:41;13.88;;;8.40;;
20619;SDS011;10469;42.720;23.252;2023-10-31T09:41:07;18.52;;;9.05;;
20619;SDS011;10469;42.720;23.252;2023-10-31T09:43:32;17.05;;;8.10;;
20619;SDS011;10469;42.720;23.252;2023-10-31T09:45:58;22.38;;;8.90;;
20619;SDS011;10469;42.720;23.252;2023-10-31T09:48:25;20.77;;;7.88;;
20619;SDS011;10469;42.720;23.252;2023-10-31T09:50:51;17.00;;;7.13;;
20619;SDS011;10469;42.720;23.252;2023-10-31T09:53:18;14.07;;;6.95;;
20619;SDS011;10469;42.720;23.252;2023-10-31T09:55:45;15.13;;;6.90;;
20619;SDS011;10469;42.720;23.252;2023-10-31T09:58:12;19.88;;;7.70;;
20619;SDS011;10469;42.720;23.252;2023-10-31T10:00:37;18.38;;;7.63;;
20619;SDS011;10469;42.720;23.252;2023-10-31T10:03:06;16.50;;;7.32;;
20619;SDS011;10469;42.720;23.252;2023-10-31T10:05:35;18.67;;;7.50;;
20619;SDS011;10469;42.720;23.252;2023-10-31T10:08:01;11.18;;;6.63;;
20619;SDS011;10469;42.720;23.252;2023-10-31T10:10:28;24.15;;;8.23;;
20619;SDS011;10469;42.720;23.252;2023-10-31T10:12:55;18.75;;;7.25;;
20619;SDS011;10469;42.720;23.252;2023-10-31T10:15:21;20.27;;;7.43;;
20619;SDS011;10469;42.720;23.252;2023-10-31T10:17:50;20.25;;;7.18;;
20619;SDS011;10469;42.720;23.252;2023-10-31T10:20:16;12.80;;;6.88;;
20619;SDS011;10469;42.720;23.252;2023-10-31T10:22:43;15.13;;;7.05;;
20619;SDS011;10469;42.720;23.252;2023-10-31T10:25:09;20.58;;;6.53;;
20619;SDS011;10469;42.720;23.252;2023-10-31T10:27:37;15.65;;;6.22;;
20619;SDS011;10469;42.720;23.252;2023-10-31T10:30:04;19.40;;;5.80;;
20619;SDS011;10469;42.720;23.252;2023-10-31T10:32:30;12.43;;;5.90;;
20619;SDS011;10469;42.720;23.252;2023-10-31T10:34:56;14.82;;;5.47;;
20619;SDS011;10469;42.720;23.252;2023-10-31T10:37:22;13.18;;;5.65;;
20619;SDS011;10469;42.720;23.252;2023-10-31T10:39:51;16.10;;;6.28;;
20619;SDS011;10469;42.720;23.252;2023-10-31T10:42:23;12.40;;;5.82;;
20619;SDS011;10469;42.720;23.252;2023-10-31T10:45:12;21.08;;;6.43;;
20619;SDS011;10469;42.720;23.252;2023-10-31T10:47:40;11.90;;;5.38;;
20619;SDS011;10469;42.720;23.252;2023-10-31T10:50:11;13.65;;;5.25;;
20619;SDS011;10469;42.720;23.252;2023-10-31T10:52:38;12.90;;;5.28;;
20619;SDS011;10469;42.720;23.252;2023-10-31T11:00:21;12.38;;;4.88;;
20619;SDS011;10469;42.720;23.252;2023-10-31T11:02:50;12.95;;;4.60;;
20619;SDS011;10469;42.720;23.252;2023-10-31T11:05:17;11.35;;;4.50;;
20619;SDS011;10469;42.720;23.252;2023-10-31T11:07:43;10.52;;;4.32;;
20619;SDS011;10469;42.720;23.252;2023-10-31T11:10:10;15.10;;;5.10;;
20619;SDS011;10469;42.720;23.252;2023-10-31T11:12:37;12.27;;;4.60;;
20619;SDS011;10469;42.720;23.252;2023-10-31T11:15:05;13.95;;;5.30;;
20619;SDS011;10469;42.720;23.252;2023-10-31T11:17:39;13.82;;;5.82;;
20619;SDS011;10469;42.720;23.252;2023-10-31T11:20:07;11.43;;;4.43;;
20619;SDS011;10469;42.720;23.252;2023-10-31T11:22:37;13.02;;;5.22;;
20619;SDS011;10469;42.720;23.252;2023-10-31T11:25:05;10.27;;;4.22;;
20619;SDS011;10469;42.720;23.252;2023-10-31T11:27:33;17.20;;;4.43;;
20619;SDS011;10469;42.720;23.252;2023-10-31T11:30:06;11.65;;;4.80;;
20619;SDS011;10469;42.720;23.252;2023-10-31T11:32:33;11.40;;;5.07;;
20619;SDS011;10469;42.720;23.252;2023-10-31T11:34:59;8.95;;;5.10;;
20619;SDS011;10469;42.720;23.252;2023-10-31T11:37:31;11.70;;;4.75;;
20619;SDS011;10469;42.720;23.252;2023-10-31T11:40:18;11.52;;;4.50;;
20619;SDS011;10469;42.720;23.252;2023-10-31T11:42:49;12.95;;;3.70;;
20619;SDS011;10469;42.720;23.252;2023-10-31T11:45:26;7.43;;;3.38;;
20619;SDS011;10469;42.720;23.252;2023-10-31T11:47:52;6.78;;;3.10;;
20619;SDS011;10469;42.720;23.252;2023-10-31T11:50:18;10.75;;;3.63;;
20619;SDS011;10469;42.720;23.252;2023-10-31T11:52:44;9.65;;;3.63;;
20619;SDS011;10469;42.720;23.252;2023-10-31T11:55:09;9.80;;;4.53;;
20619;SDS011;10469;42.720;23.252;2023-10-31T11:57:36;11.30;;;4.40;;
20619;SDS011;10469;42.720;23.252;2023-10-31T12:00:03;11.18;;;4.20;;
20619;SDS011;10469;42.720;23.252;2023-10-31T12:02:30;9.88;;;3.83;;
20619;SDS011;10469;42.720;23.252;2023-10-31T12:05:11;12.27;;;3.42;;
20619;SDS011;10469;42.720;23.252;2023-10-31T12:07:45;7.53;;;2.92;;
20619;SDS011;10469;42.720;23.252;2023-10-31T12:10:11;11.85;;;3.85;;
20619;SDS011;10469;42.720;23.252;2023-10-31T12:12:37;10.25;;;3.40;;
20619;SDS011;10469;42.720;23.252;2023-10-31T12:17:32;13.88;;;3.60;;
20619;SDS011;10469;42.720;23.252;2023-10-31T12:20:02;6.47;;;2.88;;
20619;SDS011;10469;42.720;23.252;2023-10-31T12:22:28;10.43;;;3.45;;
20619;SDS011;10469;42.720;23.252;2023-10-31T12:25:00;9.05;;;3.33;;
20619;SDS011;10469;42.720;23.252;2023-10-31T12:27:44;11.40;;;3.22;;
20619;SDS011;10469;42.720;23.252;2023-10-31T12:30:15;8.00;;;4.28;;
20619;SDS011;10469;42.720;23.252;2023-10-31T12:32:42;12.73;;;3.22;;
20619;SDS011;10469;42.720;23.252;2023-10-31T12:35:16;8.00;;;3.72;;
20619;SDS011;10469;42.720;23.252;2023-10-31T12:37:47;8.48;;;3.20;;
20619;SDS011;10469;42.720;23.252;2023-10-31T12:40:16;10.25;;;3.83;;
20619;SDS011;10469;42.720;23.252;2023-10-31T12:42:43;11.52;;;3.95;;
20619;SDS011;10469;42.720;23.252;2023-10-31T12:45:11;9.93;;;3.78;;
20619;SDS011;10469;42.720;23.252;2023-10-31T12:47:37;11.23;;;3.63;;
20619;SDS011;10469;42.720;23.252;2023-10-31T12:52:46;5.53;;;3.17;;
20619;SDS011;10469;42.720;23.252;2023-10-31T12:55:13;10.75;;;3.30;;
20619;SDS011;10469;42.720;23.252;2023-10-31T12:57:39;9.25;;;3.25;;
20619;SDS011;10469;42.720;23.252;2023-10-31T13:00:05;12.07;;;3.63;;
20619;SDS011;10469;42.720;23.252;2023-10-31T13:02:34;9.80;;;3.10;;
20619;SDS011;10469;42.720;23.252;2023-10-31T13:05:12;6.88;;;3.13;;
20619;SDS011;10469;42.720;23.252;2023-10-31T13:07:39;10.25;;;3.38;;
20619;SDS011;10469;42.720;23.252;2023-10-31T13:10:08;10.68;;;3.60;;
20619;SDS011;10469;42.720;23.252;2023-10-31T13:12:35;16.92;;;5.10;;
20619;SDS011;10469;42.720;23.252;2023-10-31T13:15:00;10.43;;;3.75;;
20619;SDS011;10469;42.720;23.252;2023-10-31T13:17:26;16.23;;;3.90;;
20619;SDS011;10469;42.720;23.252;2023-10-31T13:19:53;7.22;;;3.50;;
20619;SDS011;10469;42.720;23.252;2023-10-31T13:22:18;20.67;;;8.18;;
20619;SDS011;10469;42.720;23.252;2023-10-31T13:24:44;10.20;;;3.60;;
20619;SDS011;10469;42.720;23.252;2023-10-31T13:27:10;10.05;;;3.78;;
20619;SDS011;10469;42.720;23.252;2023-10-31T13:29:41;9.38;;;4.30;;
20619;SDS011;10469;42.720;23.252;2023-10-31T13:32:06;11.93;;;5.10;;
20619;SDS011;10469;42.720;23.252;2023-10-31T13:34:32;11.95;;;5.15;;
20619;SDS011;10469;42.720;23.252;2023-10-31T13:36:58;11.73;;;4.70;;
20619;SDS011;10469;42.720;23.252;2023-10-31T13:39:24;10.50;;;4.32;;
20619;SDS011;10469;42.720;23.252;2023-10-31T13:41:49;12.43;;;4.65;;
20619;SDS011;10469;42.720;23.252;2023-10-31T13:44:15;12.50;;;4.60;;
20619;SDS011;10469;42.720;23.252;2023-10-31T13:46:41;12.15;;;4.57;;
20619;SDS011;10469;42.720;23.252;2023-10-31T13:49:06;16.33;;;5.15;;
20619;SDS011;10469;42.720;23.252;2023-10-31T13:51:32;19.02;;;4.70;;
20619;SDS011;10469;42.720;23.252;2023-10-31T13:53:58;22.63;;;5.75;;
20619;SDS011;10469;42.720;23.252;2023-10-31T13:56:24;15.40;;;6.03;;
20619;SDS011;10469;42.720;23.252;2023-10-31T13:58:49;15.45;;;5.90;;
20619;SDS011;10469;42.720;23.252;2023-10-31T14:01:14;15.27;;;5.57;;
20619;SDS011;10469;42.720;23.252;2023-10-31T14:03:40;12.95;;;5.10;;
20619;SDS011;10469;42.720;23.252;2023-10-31T14:06:06;9.40;;;4.80;;
20619;SDS011;10469;42.720;23.252;2023-10-31T14:08:32;14.63;;;5.40;;
20619;SDS011;10469;42.720;23.252;2023-10-31T14:10:57;15.57;;;5.10;;
20619;SDS011;10469;42.720;23.252;2023-10-31T14:13:23;17.23;;;4.85;;
20619;SDS011;10469;42.720;23.252;2023-10-31T14:15:48;15.38;;;5.00;;
20619;SDS011;10469;42.720;23.252;2023-10-31T14:18:14;16.27;;;5.20;;
20619;SDS011;10469;42.720;23.252;2023-10-31T14:20:40;12.23;;;4.95;;
20619;SDS011;10469;42.720;23.252;2023-10-31T14:23:06;18.60;;;5.40;;
20619;SDS011;10469;42.720;23.252;2023-10-31T14:25:32;14.65;;;4.30;;
20619;SDS011;10469;42.720;23.252;2023-10-31T14:27:57;14.80;;;4.75;;